createdAt,value
2018-12-16T00:00:28.937Z,99595.39
2018-12-16T00:02:57.944Z,99587.66
2018-12-16T00:05:26.825Z,99594.69
2018-12-16T00:07:55.621Z,99596.20
2018-12-16T00:10:24.513Z,99592.25
2018-12-16T00:12:53.312Z,99592.34
2018-12-16T00:15:22.096Z,99595.72
2018-12-16T00:17:51.109Z,99600.27
2018-12-16T00:20:19.893Z,99597.80
2018-12-16T00:22:48.741Z,99592.58
2018-12-16T00:25:17.993Z,99583.74
2018-12-16T00:27:46.796Z,99594.39
2018-12-16T00:30:15.603Z,99593.14
2018-12-16T00:32:44.909Z,99587.66
2018-12-16T00:35:13.693Z,99576.53
2018-12-16T00:37:42.536Z,99581.41
2018-12-16T00:40:11.440Z,99579.02
2018-12-16T00:42:40.273Z,99576.27
2018-12-16T00:45:09.348Z,99582.85
2018-12-16T00:47:38.228Z,99583.86
2018-12-16T00:50:07.189Z,99579.23
2018-12-16T00:52:36.608Z,99569.00
2018-12-16T00:55:06.141Z,99567.84
2018-12-16T00:57:35.345Z,99575.20
2018-12-16T01:00:06.101Z,99576.02
2018-12-16T01:02:41.130Z,99570.92
2018-12-16T01:05:10.584Z,99580.80
2018-12-16T01:07:39.497Z,99579.35
2018-12-16T01:10:09.426Z,99581.28
2018-12-16T01:12:38.449Z,99577.98
2018-12-16T01:15:07.756Z,99579.20
2018-12-16T01:17:36.741Z,99571.81
2018-12-16T01:20:07.035Z,99565.80
2018-12-16T01:22:35.946Z,99565.00
2018-12-16T01:25:05.123Z,99565.47
2018-12-16T01:27:34.125Z,99565.02
2018-12-16T01:30:03.195Z,99556.48
2018-12-16T01:32:32.180Z,99557.86
2018-12-16T01:35:01.180Z,99542.28
2018-12-16T01:37:30.285Z,99538.38
2018-12-16T01:39:59.106Z,99543.41
2018-12-16T01:42:28.002Z,99539.49
2018-12-16T01:44:56.820Z,99547.70
2018-12-16T01:47:25.633Z,99541.30
2018-12-16T01:49:55.025Z,99551.69
2018-12-16T01:52:23.813Z,99544.71
2018-12-16T01:54:52.705Z,99548.86
2018-12-16T01:57:21.636Z,99547.11
2018-12-16T01:59:50.521Z,99545.70
2018-12-16T02:02:19.409Z,99537.39
2018-12-16T02:04:48.205Z,99541.09
2018-12-16T02:07:17.037Z,99529.69
2018-12-16T02:09:48.775Z,99521.86
2018-12-16T02:12:17.688Z,99511.13
2018-12-16T02:14:46.578Z,99514.18
2018-12-16T02:17:15.486Z,99518.70
2018-12-16T02:19:44.505Z,99521.25
2018-12-16T02:22:13.304Z,99521.25
2018-12-16T02:24:42.125Z,99519.50
2018-12-16T02:27:11.014Z,99534.30
2018-12-16T02:29:39.858Z,99527.18
2018-12-16T02:32:08.656Z,99529.28
2018-12-16T02:34:37.532Z,99532.59
2018-12-16T02:37:06.353Z,99532.44
2018-12-16T02:39:35.139Z,99529.00
2018-12-16T02:42:04.074Z,99524.31
2018-12-16T02:44:32.981Z,99516.39
2018-12-16T02:47:01.894Z,99509.82
2018-12-16T02:49:30.799Z,99503.74
2018-12-16T02:51:59.711Z,99512.09
2018-12-16T02:54:28.617Z,99514.92
2018-12-16T02:56:57.700Z,99514.33
2018-12-16T02:59:26.505Z,99519.39
2018-12-16T03:01:55.319Z,99519.52
2018-12-16T03:04:24.114Z,99522.86
2018-12-16T03:06:52.906Z,99519.67
2018-12-16T03:09:21.856Z,99522.41
2018-12-16T03:11:50.752Z,99516.14
2018-12-16T03:14:19.674Z,99519.39
2018-12-16T03:16:48.599Z,99521.39
2018-12-16T03:19:17.605Z,99511.88
2018-12-16T03:21:46.408Z,99520.14
2018-12-16T03:24:15.375Z,99521.67
2018-12-16T03:26:44.401Z,99520.12
2018-12-16T03:29:13.302Z,99520.85
2018-12-16T03:31:42.303Z,99518.43
2018-12-16T03:34:11.195Z,99517.25
2018-12-16T03:36:40.153Z,99515.82
2018-12-16T03:39:09.061Z,99505.44
2018-12-16T03:41:37.968Z,99510.82
2018-12-16T03:44:06.757Z,99515.69
2018-12-16T03:46:35.660Z,99520.09
2018-12-16T03:49:04.480Z,99512.25
2018-12-16T03:51:35.244Z,99510.12
2018-12-16T03:54:04.199Z,99504.14
2018-12-16T03:56:33.200Z,99504.23
2018-12-16T03:59:15.308Z,99504.84
2018-12-16T04:01:46.736Z,99502.52
2018-12-16T04:04:22.458Z,99501.78
2018-12-16T04:06:51.512Z,99500.83
2018-12-16T04:09:20.414Z,99499.36
2018-12-16T04:11:49.331Z,99496.68
2018-12-16T04:14:18.258Z,99493.62
2018-12-16T04:16:47.155Z,99492.77
2018-12-16T04:19:16.060Z,99486.81
2018-12-16T04:21:45.108Z,99484.42
2018-12-16T04:24:14.050Z,99487.27
2018-12-16T04:26:42.952Z,99490.19
2018-12-16T04:29:12.039Z,99483.59
2018-12-16T04:31:40.953Z,99469.05
2018-12-16T04:34:09.833Z,99480.64
2018-12-16T04:36:38.736Z,99477.52
2018-12-16T04:39:07.798Z,99475.52
2018-12-16T04:41:37.414Z,99473.51
2018-12-16T04:44:07.332Z,99473.79
2018-12-16T04:46:36.372Z,99470.13
2018-12-16T04:49:05.168Z,99466.28
2018-12-16T04:51:34.068Z,99460.65
2018-12-16T04:54:03.257Z,99469.08
2018-12-16T04:56:32.154Z,99474.20
2018-12-16T04:59:01.144Z,99475.51
2018-12-16T05:01:30.095Z,99472.48
2018-12-16T05:03:59.017Z,99468.47
2018-12-16T05:06:27.804Z,99469.33
2018-12-16T05:08:56.596Z,99468.70
2018-12-16T05:11:25.500Z,99466.47
2018-12-16T05:13:54.559Z,99460.01
2018-12-16T05:16:23.337Z,99458.87
2018-12-16T05:18:52.155Z,99468.92
2018-12-16T05:21:21.036Z,99467.16
2018-12-16T05:23:49.931Z,99460.13
2018-12-16T05:26:18.824Z,99456.47
2018-12-16T05:28:47.716Z,99455.52
2018-12-16T05:31:16.495Z,99456.44
2018-12-16T05:33:45.292Z,99454.55
2018-12-16T05:36:14.123Z,99451.40
2018-12-16T05:38:43.041Z,99447.07
2018-12-16T05:41:11.839Z,99446.82
2018-12-16T05:43:40.749Z,99438.42
2018-12-16T05:46:09.918Z,99441.31
2018-12-16T05:48:38.848Z,99437.66
2018-12-16T05:51:07.739Z,99436.87
2018-12-16T05:53:36.543Z,99437.41
2018-12-16T05:56:05.344Z,99435.84
2018-12-16T05:58:34.161Z,99444.09
2018-12-16T06:01:03.114Z,99438.59
2018-12-16T06:03:32.018Z,99452.05
2018-12-16T06:06:00.807Z,99451.15
2018-12-16T06:08:29.797Z,99453.15
2018-12-16T06:10:58.597Z,99441.64
2018-12-16T06:13:27.429Z,99448.89
2018-12-16T06:15:56.384Z,99459.58
2018-12-16T06:18:25.282Z,99459.95
2018-12-16T06:20:54.170Z,99466.83
2018-12-16T06:23:23.054Z,99471.55
2018-12-16T06:25:51.869Z,99475.98
2018-12-16T06:28:20.769Z,99473.43
2018-12-16T06:30:49.952Z,99482.47
2018-12-16T06:33:18.844Z,99483.64
2018-12-16T06:35:47.631Z,99483.55
2018-12-16T06:38:16.528Z,99481.28
2018-12-16T06:40:45.408Z,99479.69
2018-12-16T06:43:14.225Z,99476.84
2018-12-16T06:45:43.136Z,99472.38
2018-12-16T06:48:12.076Z,99472.83
2018-12-16T06:50:40.980Z,99475.64
2018-12-16T06:53:09.776Z,99473.09
2018-12-16T06:55:43.334Z,99468.67
2018-12-16T06:58:09.559Z,99466.74
2018-12-16T07:00:38.360Z,99460.05
2018-12-16T07:03:07.369Z,99465.45
2018-12-16T07:05:36.146Z,99467.44
2018-12-16T07:08:05.048Z,99470.47
2018-12-16T07:10:34.225Z,99476.72
2018-12-16T07:13:05.884Z,99482.73
2018-12-16T07:15:34.700Z,99482.05
2018-12-16T07:18:03.559Z,99482.67
2018-12-16T07:20:32.496Z,99476.86
2018-12-16T07:23:02.000Z,99473.08
2018-12-16T07:25:30.895Z,99476.68
2018-12-16T07:27:59.839Z,99483.45
2018-12-16T07:30:28.781Z,99481.81
2018-12-16T07:32:57.669Z,99480.95
2018-12-16T07:35:26.761Z,99480.95
2018-12-16T07:37:55.575Z,99479.02
2018-12-16T07:40:25.160Z,99482.05
2018-12-16T07:42:53.990Z,99480.91
2018-12-16T07:45:23.017Z,99476.75
2018-12-16T07:47:52.284Z,99474.14
2018-12-16T07:50:21.197Z,99474.66
2018-12-16T07:52:50.207Z,99473.63
2018-12-16T07:55:19.080Z,99470.22
2018-12-16T07:57:48.115Z,99463.54
2018-12-16T08:00:17.544Z,99460.57
2018-12-16T08:02:46.336Z,99460.39
2018-12-16T08:05:15.305Z,99468.47
2018-12-16T08:07:44.173Z,99473.28
2018-12-16T08:10:12.997Z,99471.64
2018-12-16T08:12:41.905Z,99468.48
2018-12-16T08:15:10.857Z,99468.83
2018-12-16T08:17:39.850Z,99469.23
2018-12-16T08:20:08.823Z,99469.50
2018-12-16T08:22:37.723Z,99457.55
2018-12-16T08:25:06.786Z,99463.08
2018-12-16T08:27:35.598Z,99458.52
2018-12-16T08:30:05.996Z,99460.23
2018-12-16T08:32:34.893Z,99456.24
2018-12-16T08:35:04.594Z,99458.34
2018-12-16T08:37:33.594Z,99454.74
2018-12-16T08:40:02.552Z,99456.87
2018-12-16T08:42:31.448Z,99445.35
2018-12-16T08:45:00.253Z,99452.42
2018-12-16T08:47:33.058Z,99451.25
2018-12-16T08:50:00.209Z,99446.73
2018-12-16T08:52:28.998Z,99443.02
2018-12-16T08:54:57.893Z,99446.83
2018-12-16T08:57:26.686Z,99438.52
2018-12-16T08:59:55.592Z,99446.18
2018-12-16T09:02:24.482Z,99444.46
2018-12-16T09:04:53.626Z,99440.80
2018-12-16T09:07:22.636Z,99447.67
2018-12-16T09:09:51.540Z,99446.88
2018-12-16T09:12:20.857Z,99440.48
2018-12-16T09:14:49.738Z,99428.24
2018-12-16T09:17:18.673Z,99428.65
2018-12-16T09:19:47.673Z,99429.95
2018-12-16T09:22:16.658Z,99428.05
2018-12-16T09:24:45.573Z,99423.26
2018-12-16T09:27:14.377Z,99416.06
2018-12-16T09:29:43.171Z,99411.23
2018-12-16T09:32:11.981Z,99408.98
2018-12-16T09:34:40.912Z,99403.70
2018-12-16T09:37:09.820Z,99407.18
2018-12-16T09:39:38.712Z,99402.97
2018-12-16T09:42:07.617Z,99393.17
2018-12-16T09:44:36.654Z,99392.32
2018-12-16T09:47:05.557Z,99392.84
2018-12-16T09:49:34.484Z,99384.98
2018-12-16T09:52:03.292Z,99384.78
2018-12-16T09:54:32.208Z,99380.84
2018-12-16T09:57:00.976Z,99366.77
2018-12-16T09:59:29.802Z,99372.12
2018-12-16T10:01:58.690Z,99376.37
2018-12-16T10:04:30.485Z,99372.63
2018-12-16T10:06:59.381Z,99370.70
2018-12-16T10:09:28.167Z,99373.41
2018-12-16T10:11:57.052Z,99363.72
2018-12-16T10:14:25.843Z,99356.50
2018-12-16T10:16:54.646Z,99351.96
2018-12-16T10:19:23.540Z,99348.66
2018-12-16T10:21:52.352Z,99346.36
2018-12-16T10:24:21.304Z,99346.22
2018-12-16T10:26:50.341Z,99348.30
2018-12-16T10:29:19.241Z,99343.11
2018-12-16T10:31:48.148Z,99344.77
2018-12-16T10:34:17.180Z,99341.98
2018-12-16T10:36:46.089Z,99339.47
2018-12-16T10:39:14.896Z,99334.14
2018-12-16T10:41:43.820Z,99328.98
2018-12-16T10:44:12.720Z,99327.12
2018-12-16T10:46:42.572Z,99318.94
2018-12-16T10:49:11.411Z,99320.25
2018-12-16T10:51:40.322Z,99321.33
2018-12-16T10:54:09.129Z,99322.90
2018-12-16T10:56:37.939Z,99327.91
2018-12-16T10:59:06.825Z,99322.67
2018-12-16T11:01:35.673Z,99318.55
2018-12-16T11:04:04.592Z,99309.14
2018-12-16T11:06:34.672Z,99308.67
2018-12-16T11:09:04.432Z,99294.92
2018-12-16T11:11:33.250Z,99290.14
2018-12-16T11:14:02.112Z,99281.89
2018-12-16T11:16:31.068Z,99278.84
2018-12-16T11:18:59.904Z,99276.84
2018-12-16T11:21:28.787Z,99277.14
2018-12-16T11:23:57.709Z,99277.35
2018-12-16T11:26:26.506Z,99271.73
2018-12-16T11:28:55.391Z,99268.96
2018-12-16T11:31:24.573Z,99270.09
2018-12-16T11:33:53.457Z,99275.95
2018-12-16T11:36:22.371Z,99273.41
2018-12-16T11:38:51.260Z,99278.97
2018-12-16T11:41:20.261Z,99260.52
2018-12-16T11:43:49.193Z,99267.20
2018-12-16T11:46:18.088Z,99250.83
2018-12-16T11:48:46.982Z,99252.79
2018-12-16T11:51:16.015Z,99254.77
2018-12-16T11:53:44.809Z,99253.39
2018-12-16T11:56:13.918Z,99255.27
2018-12-16T11:58:42.828Z,99262.40
2018-12-16T12:01:11.628Z,99257.70
2018-12-16T12:03:40.528Z,99255.56
2018-12-16T12:06:09.517Z,99251.32
2018-12-16T12:08:38.508Z,99257.69
2018-12-16T12:11:07.437Z,99254.96
2018-12-16T12:13:36.333Z,99251.32
2018-12-16T12:16:05.162Z,99246.21
2018-12-16T12:18:34.646Z,99246.09
2018-12-16T12:21:03.618Z,99247.56
2018-12-16T12:23:32.624Z,99255.75
2018-12-16T12:26:01.594Z,99252.66
2018-12-16T12:28:30.652Z,99256.55
2018-12-16T12:30:59.629Z,99257.11
2018-12-16T12:33:28.522Z,99259.05
2018-12-16T12:35:57.340Z,99262.22
2018-12-16T12:38:26.170Z,99262.52
2018-12-16T12:40:54.954Z,99265.61
2018-12-16T12:43:25.041Z,99262.83
2018-12-16T12:45:54.187Z,99264.89
2018-12-16T12:48:23.606Z,99260.84
2018-12-16T12:50:52.430Z,99257.13
2018-12-16T12:53:21.332Z,99254.85
2018-12-16T12:55:50.148Z,99257.32
2018-12-16T12:58:19.945Z,99256.16
2018-12-16T13:00:48.841Z,99259.34
2018-12-16T13:03:17.747Z,99262.83
2018-12-16T13:05:46.596Z,99272.39
2018-12-16T13:08:15.497Z,99270.94
2018-12-16T13:10:44.401Z,99271.89
2018-12-16T13:13:13.692Z,99270.27
2018-12-16T13:15:42.632Z,99276.09
2018-12-16T13:18:11.557Z,99270.84
2018-12-16T13:20:40.438Z,99267.14
2018-12-16T13:23:09.264Z,99260.88
2018-12-16T13:25:49.200Z,99265.07
2018-12-16T13:28:18.081Z,99267.91
2018-12-16T13:30:46.930Z,99273.55
2018-12-16T13:33:15.767Z,99282.30
2018-12-16T13:35:44.710Z,99279.97
2018-12-16T13:38:13.573Z,99280.49
2018-12-16T13:40:42.604Z,99280.65
2018-12-16T13:43:11.452Z,99275.49
2018-12-16T13:45:40.299Z,99267.30
2018-12-16T13:48:09.295Z,99269.37
2018-12-16T13:50:38.313Z,99270.64
2018-12-16T13:53:07.169Z,99270.09
2018-12-16T13:55:40.785Z,99272.71
2018-12-16T13:58:06.984Z,99272.59
2018-12-16T14:00:36.422Z,99278.67
2018-12-16T14:03:05.382Z,99281.45
2018-12-16T14:05:34.205Z,99290.48
2018-12-16T14:08:03.237Z,99283.25
2018-12-16T14:10:32.243Z,99288.41
2018-12-16T14:13:01.189Z,99288.05
2018-12-16T14:15:30.110Z,99287.80
2018-12-16T14:17:59.083Z,99291.67
2018-12-16T14:20:28.113Z,99287.86
2018-12-16T14:22:57.121Z,99295.28
2018-12-16T14:25:25.928Z,99289.02
2018-12-16T14:27:55.008Z,99279.77
2018-12-16T14:30:23.960Z,99286.19
2018-12-16T14:32:52.789Z,99282.45
2018-12-16T14:35:22.089Z,99285.17
2018-12-16T14:37:50.945Z,99293.54
2018-12-16T14:40:19.983Z,99291.38
2018-12-16T14:42:48.900Z,99290.05
2018-12-16T14:45:17.840Z,99292.44
2018-12-16T14:47:46.779Z,99298.48
2018-12-16T14:50:15.622Z,99313.13
2018-12-16T14:52:44.461Z,99308.14
2018-12-16T14:55:13.350Z,99318.31
2018-12-16T14:57:42.349Z,99327.36
2018-12-16T15:00:11.706Z,99341.02
2018-12-16T15:02:40.624Z,99347.30
2018-12-16T15:05:09.676Z,99350.56
2018-12-16T15:07:38.616Z,99354.77
2018-12-16T15:10:09.635Z,99377.31
2018-12-16T15:12:38.600Z,99374.69
2018-12-16T15:15:08.680Z,99396.82
2018-12-16T15:17:42.743Z,99400.56
2018-12-16T15:20:08.730Z,99412.00
2018-12-16T15:22:37.660Z,99417.00
2018-12-16T15:25:06.825Z,99424.86
2018-12-16T15:27:35.835Z,99431.20
2018-12-16T15:30:06.943Z,99444.45
2018-12-16T15:32:35.964Z,99453.30
2018-12-16T15:35:05.973Z,99452.27
2018-12-16T15:37:35.101Z,99458.23
2018-12-16T15:40:06.444Z,99465.77
2018-12-16T15:42:35.884Z,99463.23
2018-12-16T15:45:06.596Z,99467.58
2018-12-16T15:47:35.641Z,99471.83
2018-12-16T15:50:05.698Z,99473.99
2018-12-16T15:52:34.599Z,99478.86
2018-12-16T15:55:04.518Z,99484.23
2018-12-16T15:57:33.461Z,99491.41
2018-12-16T16:00:02.452Z,99486.55
2018-12-16T16:02:31.433Z,99497.44
2018-12-16T16:05:00.359Z,99499.47
2018-12-16T16:07:29.284Z,99499.05
2018-12-16T16:09:58.218Z,99506.07
2018-12-16T16:12:27.146Z,99500.58
2018-12-16T16:14:56.300Z,99505.36
2018-12-16T16:17:25.169Z,99503.39
2018-12-16T16:19:54.105Z,99509.39
2018-12-16T16:22:22.949Z,99515.85
2018-12-16T16:24:51.780Z,99520.27
2018-12-16T16:45:37.024Z,99545.66
2018-12-16T16:48:06.897Z,99545.52
2018-12-16T16:50:35.829Z,99544.72
2018-12-16T16:53:04.845Z,99546.58
2018-12-16T16:55:33.686Z,99555.45
2018-12-16T16:58:02.592Z,99549.79
2018-12-16T17:00:31.525Z,99544.58
2018-12-16T17:03:00.536Z,99558.80
2018-12-16T17:05:29.573Z,99554.09
2018-12-16T17:07:58.490Z,99554.23
2018-12-16T17:10:27.575Z,99550.55
2018-12-16T17:12:56.487Z,99553.38
2018-12-16T17:15:25.405Z,99550.94
2018-12-16T17:17:54.501Z,99548.00
2018-12-16T17:20:23.368Z,99567.98
2018-12-16T17:22:52.869Z,99557.27
2018-12-16T17:25:21.896Z,99554.25
2018-12-16T17:27:50.812Z,99554.95
2018-12-16T17:30:19.845Z,99564.41
2018-12-16T17:32:48.868Z,99570.33
2018-12-16T17:35:18.849Z,99574.83
2018-12-16T17:37:48.014Z,99583.14
2018-12-16T17:40:16.890Z,99590.86
2018-12-16T17:42:45.689Z,99587.14
2018-12-16T17:45:14.625Z,99592.44
2018-12-16T17:47:43.784Z,99585.25
2018-12-16T17:50:12.677Z,99583.51
2018-12-16T17:52:41.625Z,99586.12
2018-12-16T17:55:10.679Z,99591.36
2018-12-16T17:57:39.605Z,99589.41
2018-12-16T18:00:10.713Z,99594.52
2018-12-16T18:02:39.670Z,99591.67
2018-12-16T18:05:09.198Z,99588.45
2018-12-16T18:07:39.648Z,99595.34
2018-12-16T18:10:08.809Z,99589.37
2018-12-16T18:12:37.731Z,99608.84
2018-12-16T18:15:07.601Z,99608.79
2018-12-16T18:17:36.431Z,99625.66
2018-12-16T18:20:06.710Z,99630.04
2018-12-16T18:22:35.657Z,99627.95
2018-12-16T18:25:04.922Z,99632.77
2018-12-16T18:27:33.853Z,99631.34
2018-12-16T18:30:03.625Z,99626.58
2018-12-16T18:32:32.449Z,99633.15
2018-12-16T18:35:01.267Z,99630.36
2018-12-16T18:37:30.728Z,99628.31
2018-12-16T18:39:59.748Z,99635.01
2018-12-16T18:42:28.557Z,99638.84
2018-12-16T18:44:57.479Z,99643.68
2018-12-16T18:47:26.304Z,99648.84
2018-12-16T18:49:55.125Z,99651.44
2018-12-16T18:52:23.963Z,99651.73
2018-12-16T18:54:53.554Z,99657.45
2018-12-16T18:57:22.422Z,99654.54
2018-12-16T18:59:51.394Z,99651.89
2018-12-16T19:02:20.382Z,99666.67
2018-12-16T19:04:49.396Z,99662.60
2018-12-16T19:07:19.141Z,99663.77
2018-12-16T19:09:57.318Z,99663.53
2018-12-16T19:12:26.861Z,99665.72
2018-12-16T19:14:57.128Z,99675.13
2018-12-16T19:17:26.039Z,99674.50
2018-12-16T19:19:55.071Z,99673.18
2018-12-16T19:22:24.870Z,99673.86
2018-12-16T19:24:53.750Z,99676.42
2018-12-16T19:27:22.566Z,99676.55
2018-12-16T19:29:52.385Z,99675.84
2018-12-16T19:32:21.196Z,99682.14
2018-12-16T19:34:50.296Z,99685.17
2018-12-16T19:37:19.212Z,99680.86
2018-12-16T19:39:48.997Z,99690.59
2018-12-16T19:42:17.821Z,99686.08
2018-12-16T19:44:46.869Z,99693.91
2018-12-16T19:47:15.683Z,99699.94
2018-12-16T19:49:44.605Z,99696.87
2018-12-16T19:52:13.565Z,99704.02
2018-12-16T19:54:42.577Z,99691.06
2018-12-16T19:57:11.731Z,99683.80
2018-12-16T19:59:40.570Z,99676.34
2018-12-16T20:02:09.549Z,99678.19
2018-12-16T20:04:44.364Z,99702.75
2018-12-16T20:07:13.195Z,99712.29
2018-12-16T20:09:42.961Z,99717.34
2018-12-16T20:12:11.912Z,99715.33
2018-12-16T20:14:41.762Z,99709.63
2018-12-16T20:17:10.610Z,99710.41
2018-12-16T20:19:39.613Z,99712.07
2018-12-16T20:22:08.564Z,99710.22
2018-12-16T20:24:37.494Z,99709.16
2018-12-16T20:27:12.020Z,99711.50
2018-12-16T20:29:37.519Z,99721.24
2018-12-16T20:32:06.327Z,99727.58
2018-12-16T20:34:35.249Z,99735.94
2018-12-16T20:37:04.188Z,99738.75
2018-12-16T20:39:33.124Z,99734.42
2018-12-16T20:42:02.026Z,99741.79
2018-12-16T20:44:31.442Z,99737.61
2018-12-16T20:47:00.272Z,99743.67
2018-12-16T20:49:29.213Z,99745.58
2018-12-16T20:51:58.038Z,99752.91
2018-12-16T20:54:26.841Z,99754.54
2018-12-16T20:56:55.744Z,99751.44
2018-12-16T20:59:24.672Z,99762.59
2018-12-16T21:01:53.500Z,99754.36
2018-12-16T21:04:22.400Z,99753.94
2018-12-16T21:06:51.237Z,99749.16
2018-12-16T21:09:20.589Z,99741.02
2018-12-16T21:11:55.000Z,99750.08
2018-12-16T21:14:29.212Z,99756.86
2018-12-16T21:17:03.720Z,99763.19
2018-12-16T21:19:33.002Z,99759.86
2018-12-16T21:22:02.239Z,99764.78
2018-12-16T21:24:31.339Z,99764.39
2018-12-16T21:27:00.516Z,99756.24
2018-12-16T21:29:29.444Z,99767.19
2018-12-16T21:31:58.453Z,99770.07
2018-12-16T21:34:27.272Z,99774.60
2018-12-16T21:36:56.172Z,99769.55
2018-12-16T21:39:25.069Z,99768.11
2018-12-16T21:41:53.880Z,99773.64
2018-12-16T21:44:22.702Z,99772.01
2018-12-16T21:46:52.470Z,99771.59
2018-12-16T21:49:21.362Z,99768.66
2018-12-16T21:51:50.262Z,99768.54
2018-12-16T21:54:19.180Z,99768.25
2018-12-16T21:56:48.101Z,99770.13
2018-12-16T21:59:17.003Z,99764.16
2018-12-16T22:01:45.823Z,99771.53
2018-12-16T22:04:14.635Z,99767.48
2018-12-16T22:06:43.668Z,99764.64
2018-12-16T22:09:12.505Z,99763.48
2018-12-16T22:11:41.438Z,99767.77
2018-12-16T22:14:10.451Z,99767.81
2018-12-16T22:16:39.280Z,99768.00
2018-12-16T22:19:08.211Z,99763.91
2018-12-16T22:21:37.225Z,99767.53
2018-12-16T22:24:06.038Z,99767.19
2018-12-16T22:26:34.857Z,99763.38
2018-12-16T22:29:03.885Z,99759.15
2018-12-16T22:31:32.695Z,99760.16
2018-12-16T22:34:01.920Z,99768.05
2018-12-16T22:36:31.429Z,99765.41
2018-12-16T22:39:00.248Z,99774.30
2018-12-16T22:41:29.145Z,99772.48
2018-12-16T22:43:58.204Z,99768.72
2018-12-16T22:46:27.316Z,99763.00
2018-12-16T22:48:56.120Z,99763.38
2018-12-16T22:51:25.017Z,99760.93
2018-12-16T22:53:53.930Z,99749.95
2018-12-16T22:56:22.855Z,99753.91
2018-12-16T22:58:54.488Z,99751.69
2018-12-16T23:01:22.842Z,99752.94
2018-12-16T23:03:51.681Z,99746.72
2018-12-16T23:06:20.658Z,99749.31
2018-12-16T23:08:49.572Z,99750.24
2018-12-16T23:11:18.585Z,99754.67
2018-12-16T23:13:47.398Z,99759.29
2018-12-16T23:16:16.430Z,99752.41
2018-12-16T23:18:45.531Z,99748.39
2018-12-16T23:21:14.328Z,99748.06
2018-12-16T23:23:43.245Z,99748.89
2018-12-16T23:26:12.090Z,99751.01
2018-12-16T23:28:40.943Z,99746.97
2018-12-16T23:31:09.884Z,99756.06
2018-12-16T23:33:38.926Z,99749.70
2018-12-16T23:36:07.946Z,99750.62
2018-12-16T23:38:36.749Z,99755.16
2018-12-16T23:41:05.700Z,99749.06
2018-12-16T23:43:34.605Z,99746.09
2018-12-16T23:46:03.560Z,99747.06
2018-12-16T23:48:32.353Z,99753.38
2018-12-16T23:51:01.181Z,99752.70
2018-12-16T23:53:30.629Z,99751.82
2018-12-16T23:55:59.500Z,99758.95
2018-12-16T23:58:28.413Z,99763.24
